地図

経路データ

SID SEASON NUMBER BASIN SUBBASIN NAME ISO_TIME NATURE LAT LON WMO_WIND WMO_PRES WMO_AGENCY TRACK_TYPE DIST2LAND LANDFALL IFLAG USA_AGENCY USA_ATCF_ID USA_LAT USA_LON USA_RECORD USA_STATUS USA_WIND USA_PRES USA_SSHS USA_R34_NE USA_R34_SE USA_R34_SW USA_R34_NW USA_R50_NE USA_R50_SE USA_R50_SW USA_R50_NW USA_R64_NE USA_R64_SE USA_R64_SW USA_R64_NW USA_POCI USA_ROCI USA_RMW USA_EYE TOKYO_LAT TOKYO_LON TOKYO_GRADE TOKYO_WIND TOKYO_PRES TOKYO_R50_DIR TOKYO_R50_LONG TOKYO_R50_SHORT TOKYO_R30_DIR TOKYO_R30_LONG TOKYO_R30_SHORT TOKYO_LAND CMA_LAT CMA_LON CMA_CAT CMA_WIND CMA_PRES HKO_LAT HKO_LON HKO_CAT HKO_WIND HKO_PRES NEWDELHI_LAT NEWDELHI_LON NEWDELHI_GRADE NEWDELHI_WIND NEWDELHI_PRES NEWDELHI_CI NEWDELHI_DP NEWDELHI_POCI REUNION_LAT REUNION_LON REUNION_TYPE REUNION_WIND REUNION_PRES REUNION_TNUM REUNION_CI REUNION_RMW REUNION_R34_NE REUNION_R34_SE REUNION_R34_SW REUNION_R34_NW REUNION_R50_NE REUNION_R50_SE REUNION_R50_SW REUNION_R50_NW REUNION_R64_NE REUNION_R64_SE REUNION_R64_SW REUNION_R64_NW BOM_LAT BOM_LON BOM_TYPE BOM_WIND BOM_PRES BOM_TNUM BOM_CI BOM_RMW BOM_R34_NE BOM_R34_SE BOM_R34_SW BOM_R34_NW BOM_R50_NE BOM_R50_SE BOM_R50_SW BOM_R50_NW BOM_R64_NE BOM_R64_SE BOM_R64_SW BOM_R64_NW BOM_ROCI BOM_POCI BOM_EYE BOM_POS_METHOD BOM_PRES_METHOD NADI_LAT NADI_LON NADI_CAT NADI_WIND NADI_PRES WELLINGTON_LAT WELLINGTON_LON WELLINGTON_WIND WELLINGTON_PRES DS824_LAT DS824_LON DS824_STAGE DS824_WIND DS824_PRES TD9636_LAT TD9636_LON TD9636_STAGE TD9636_WIND TD9636_PRES TD9635_LAT TD9635_LON TD9635_WIND TD9635_PRES TD9635_ROCI NEUMANN_LAT NEUMANN_LON NEUMANN_CLASS NEUMANN_WIND NEUMANN_PRES MLC_LAT MLC_LON MLC_CLASS MLC_WIND MLC_PRES USA_GUST BOM_GUST BOM_GUST_PER REUNION_GUST REUNION_GUST_PER USA_SEAHGT USA_SEARAD_NE USA_SEARAD_SE USA_SEARAD_SW USA_SEARAD_NW STORM_SPEED STORM_DIR
1948121S23153 1948 28 SP EA NOT_NAMED 1948-04-29 23:00:00 NR -22.5000 153.100 1004 bom main 222 222 ______O___O___ -1 -22.8000 153.100 1004 -22.2000 153.100 7 6 314
1948121S23153 1948 28 SP EA NOT_NAMED 1948-04-30 00:00:00 TS -22.4329 153.030 main 226 211 O_____P__OP___ jtwc_sh SH231948 -22.2000 153.000 -1 -22.8668 153.055 -22.2000 153.000 TC -22.2318 153.035 7 3 260
1948121S23153 1948 28 SP EA NOT_NAMED 1948-04-30 03:00:00 TS -22.5395 152.869 main 211 191 P_____P__PP___ SH231948 -22.3025 152.850 -1 -23.0672 152.919 -22.3025 152.850 TC -22.3277 152.843 7 4 233
1948121S23153 1948 28 SP EA NOT_NAMED 1948-04-30 06:00:00 TS -22.6553 152.712 main 181 176 O_____P__OP___ jtwc_sh SH231948 -22.4000 152.700 -1 -23.2675 152.782 -22.4000 152.700 TC -22.4259 152.661 7 4 234
1948121S23153 1948 28 SP EA NOT_NAMED 1948-04-30 09:00:00 TS -22.7452 152.560 main 176 161 P_____P__PP___ SH231948 -22.4925 152.550 -1 -23.4676 152.645 -22.4925 152.550 TC -22.5284 152.496 7 3 233
1948121S23153 1948 28 SP EA NOT_NAMED 1948-04-30 11:00:00 TS -22.8307 152.463 main 161 147 P_____P__PO___ SH231948 -22.5610 152.450 -1 -23.6010 152.553 -22.5610 152.450 TC -22.6000 152.400 7 4 225
1948121S23153 1948 28 SP EA NOT_NAMED 1948-04-30 12:00:00 TS -22.8762 152.416 main 147 133 O_____P__OP___ jtwc_sh SH231948 -22.6000 152.400 -1 -23.6677 152.507 -22.6000 152.400 TC -22.6370 152.356 7 4 221
1948121S23153 1948 28 SP EA NOT_NAMED 1948-04-30 15:00:00 TS -23.0302 152.277 main 133 105 P_____P__PP___ SH231948 -22.7500 152.250 -1 -23.8676 152.370 -22.7500 152.250 TC -22.7531 152.239 7 4 219
1948121S23153 1948 28 SP EA NOT_NAMED 1948-04-30 18:00:00 TS -23.1860 152.139 main 105 91 O_____P__OP___ jtwc_sh SH231948 -22.9000 152.100 -1 -24.0674 152.231 -22.9000 152.100 TC -22.8768 152.127 7 4 221
1948121S23153 1948 28 SP EA NOT_NAMED 1948-04-30 21:00:00 TS -23.3188 152.002 main 91 78 P_____P__PP___ SH231948 -23.0000 151.957 -1 -24.2670 152.093 -23.0000 151.957 TC -23.0082 152.001 7 4 224
1948121S23153 1948 28 SP EA NOT_NAMED 1948-04-30 23:00:00 TS -23.4068 151.903 1002 bom main 78 78 P_____O__PO___ SH231948 -23.0636 151.856 -1 -24.4000 152.000 1002 4 -23.0636 151.856 TC -23.1000 151.900 7 4 231
1948121S23153 1948 28 SP EA NOT_NAMED 1948-05-01 00:00:00 TS -23.4411 151.840 main 78 52 O_____P__OP___ jtwc_sh SH231948 -23.1000 151.800 -1 -24.4214 151.917 -23.1000 151.800 TC -23.1429 151.842 7 4 238
1948121S23153 1948 28 SP EA NOT_NAMED 1948-05-01 03:00:00 TS -23.5577 151.636 main 52 30 P_____P__PP___ SH231948 -23.2350 151.615 -1 -24.4852 151.668 -23.2350 151.615 TC -23.2757 151.648 7 5 237
1948121S23153 1948 28 SP EA NOT_NAMED 1948-05-01 06:00:00 TS -23.6920 151.411 main 30 10 O_____P__OP___ jtwc_sh SH231948 -23.4000 151.400 -1 -24.5486 151.418 -23.4000 151.400 TC -23.4193 151.425 7 5 236
1948121S23153 1948 28 SP EA NOT_NAMED 1948-05-01 09:00:00 TS -23.8442 151.169 main 10 0 P_____P__PP___ SH231948 -23.5925 151.165 -1 -24.6115 151.169 -23.5925 151.165 TC -23.5801 151.177 7 6 235
1948121S23153 1948 28 SP EA NOT_NAMED 1948-05-01 11:00:00 TS -23.9537 150.996 main 0 0 P_____P__PO___ SH231948 -23.7307 150.992 -1 -24.6533 151.002 -23.7307 150.992 TC -23.7000 151.000 7 6 230
1948121S23153 1948 28 SP EA NOT_NAMED 1948-05-01 12:00:00 TS -24.0396 150.908 main 0 0 O_____P__OP___ jtwc_sh SH231948 -23.8000 150.900 -1 -24.6741 150.919 -23.8000 150.900 TC -23.7643 150.908 7 7 230
1948121S23153 1948 28 SP EA NOT_NAMED 1948-05-01 15:00:00 TS -24.2374 150.632 main 0 0 P_____P__PP___ SH231948 -24.0026 150.608 -1 -24.7363 150.668 -24.0026 150.608 TC -23.9732 150.621 7 6 233
1948121S23153 1948 28 SP EA NOT_NAMED 1948-05-01 18:00:00 TS -24.4244 150.352 main 0 0 O_____P__OP___ jtwc_sh SH231948 -24.2000 150.300 -1 -24.7980 150.418 -24.2000 150.300 TC -24.2003 150.320 7 6 230
1948121S23153 1948 28 SP EA NOT_NAMED 1948-05-01 21:00:00 NR -24.6489 150.088 main 0 0 ______P___P___ SH231948 -1 -24.8594 150.167 TC -24.4385 150.009 7 6 232
1948121S23153 1948 28 SP EA NOT_NAMED 1948-05-01 23:00:00 NR -24.7500 149.900 1003 bom main 0 ______O___O___ SH231948 -1 -24.9000 150.000 1003 TC -24.6000 149.800 7 6 240

デジタル台風データ・検索

IBTrACS Databaseについて

本データベースは、米国NOAAが公開する1842年以降の世界の熱帯低気圧のベストトラックデータアーカイブInternational Best Track Archive for Climate Stewardship (IBTrACS)を、ウェブで閲覧しやすい形式に変換したものです。

最終更新日:2021-11-26